createdAt,value
2023-03-26T00:01:23.487Z,7.63
2023-03-26T00:03:53.682Z,7.63
2023-03-26T00:06:22.999Z,7.69
2023-03-26T00:08:50.716Z,7.69
2023-03-26T00:11:19.944Z,7.63
2023-03-26T00:13:47.640Z,7.63
2023-03-26T00:16:17.884Z,7.63
2023-03-26T00:18:46.044Z,7.63
2023-03-26T00:21:17.164Z,7.63
2023-03-26T00:23:45.376Z,7.56
2023-03-26T00:26:12.848Z,7.56
2023-03-26T00:28:41.584Z,7.56
2023-03-26T00:31:15.452Z,7.56
2023-03-26T00:33:43.078Z,7.56
2023-03-26T00:36:14.681Z,7.56
2023-03-26T00:38:42.276Z,7.50
2023-03-26T00:41:17.509Z,7.56
2023-03-26T00:43:48.445Z,7.50
2023-03-26T00:46:15.682Z,7.44
2023-03-26T00:48:45.757Z,7.50
2023-03-26T00:51:17.621Z,7.50
2023-03-26T00:53:46.428Z,7.38
2023-03-26T00:56:13.413Z,7.44
2023-03-26T00:58:40.589Z,7.44
2023-03-26T01:01:20.774Z,7.31
2023-03-26T01:04:04.871Z,7.38
2023-03-26T01:06:37.794Z,7.31
2023-03-26T01:09:30.762Z,7.31
2023-03-26T01:11:57.376Z,7.38
2023-03-26T01:14:26.835Z,7.44
2023-03-26T01:16:56.823Z,7.38
2023-03-26T01:19:45.099Z,7.38
2023-03-26T01:22:19.328Z,7.38
2023-03-26T01:24:52.273Z,7.25
2023-03-26T01:27:46.089Z,7.19
2023-03-26T01:30:33.627Z,7.25
2023-03-26T01:33:30.237Z,7.38
2023-03-26T01:36:34.607Z,7.38
2023-03-26T01:39:27.073Z,7.38
2023-03-26T01:42:11.058Z,7.31
2023-03-26T01:44:46.393Z,7.25
2023-03-26T01:47:14.051Z,7.31
2023-03-26T01:49:40.779Z,7.44
2023-03-26T01:52:17.368Z,7.44
2023-03-26T01:54:46.610Z,7.44
2023-03-26T01:57:22.308Z,7.44
2023-03-26T02:00:11.716Z,7.44
2023-03-26T02:02:56.356Z,7.44
2023-03-26T02:05:53.357Z,7.31
2023-03-26T02:08:35.878Z,7.38
2023-03-26T02:11:13.221Z,7.38
2023-03-26T02:13:45.808Z,7.38
2023-03-26T02:16:18.553Z,7.38
2023-03-26T02:18:51.262Z,7.38
2023-03-26T02:21:21.365Z,7.25
2023-03-26T02:24:03.316Z,7.25
2023-03-26T02:26:33.064Z,7.31
2023-03-26T02:28:59.847Z,7.25
2023-03-26T02:31:26.791Z,7.31
2023-03-26T02:33:55.599Z,7.38
2023-03-26T02:36:27.350Z,7.44
2023-03-26T02:38:57.873Z,7.56
2023-03-26T02:41:24.678Z,7.50
2023-03-26T02:43:51.580Z,7.44
2023-03-26T02:46:18.255Z,7.44
2023-03-26T02:48:44.955Z,7.44
2023-03-26T02:51:11.519Z,7.25
2023-03-26T02:53:39.474Z,7.25
2023-03-26T02:56:06.756Z,7.38
2023-03-26T02:58:33.476Z,7.38
2023-03-26T03:01:03.039Z,7.31
2023-03-26T03:03:30.405Z,7.25
2023-03-26T03:05:57.896Z,7.31
2023-03-26T03:08:26.773Z,7.38
2023-03-26T03:11:24.522Z,7.44
2023-03-26T03:13:52.310Z,7.44
2023-03-26T03:16:20.087Z,7.50
2023-03-26T03:18:54.044Z,7.50
2023-03-26T03:21:21.174Z,7.63
2023-03-26T03:23:48.028Z,7.63
2023-03-26T03:26:17.572Z,7.69
2023-03-26T03:28:45.266Z,7.75
2023-03-26T03:31:11.910Z,7.88
2023-03-26T03:33:38.502Z,7.94
2023-03-26T03:36:10.393Z,8.00
2023-03-26T03:38:46.833Z,8.00
2023-03-26T03:41:13.491Z,8.00
2023-03-26T03:43:40.229Z,8.00
2023-03-26T03:46:07.095Z,8.00
2023-03-26T03:48:33.803Z,8.06
2023-03-26T03:51:00.368Z,8.06
2023-03-26T03:53:27.049Z,8.00
2023-03-26T03:55:57.658Z,8.00
2023-03-26T03:58:28.310Z,8.06
2023-03-26T04:01:00.908Z,8.06
2023-03-26T04:03:34.327Z,8.06
2023-03-26T04:06:01.533Z,8.06
2023-03-26T04:08:28.240Z,8.06
2023-03-26T04:10:54.849Z,8.06
2023-03-26T04:13:21.635Z,8.06
2023-03-26T04:15:48.385Z,8.06
2023-03-26T04:18:15.599Z,8.06
2023-03-26T04:20:48.074Z,8.06
2023-03-26T04:23:18.108Z,8.06
2023-03-26T04:25:49.263Z,8.06
2023-03-26T04:28:46.472Z,8.06
2023-03-26T04:31:16.652Z,8.06
2023-03-26T04:33:47.730Z,8.06
2023-03-26T04:36:16.706Z,8.06
2023-03-26T04:38:49.122Z,8.06
2023-03-26T04:41:15.958Z,8.06
2023-03-26T04:43:47.179Z,8.06
2023-03-26T04:46:14.646Z,8.06
2023-03-26T04:48:41.399Z,8.06
2023-03-26T04:51:09.941Z,8.00
2023-03-26T04:53:37.027Z,8.00
2023-03-26T04:56:17.081Z,8.00
2023-03-26T04:58:43.682Z,7.94
2023-03-26T05:01:11.157Z,7.94
2023-03-26T05:03:40.664Z,7.88
2023-03-26T05:06:10.530Z,7.94
2023-03-26T05:08:37.228Z,7.94
2023-03-26T05:11:07.413Z,7.94
2023-03-26T05:13:34.003Z,8.00
2023-03-26T05:16:00.660Z,7.94
2023-03-26T05:18:27.295Z,8.00
2023-03-26T05:20:54.125Z,8.00
2023-03-26T05:23:20.885Z,8.00
2023-03-26T05:25:47.575Z,8.00
2023-03-26T05:28:14.456Z,7.94
2023-03-26T05:30:43.474Z,8.06
2023-03-26T05:33:10.347Z,8.00
2023-03-26T05:35:37.382Z,8.00
2023-03-26T05:38:04.097Z,8.06
2023-03-26T05:40:30.697Z,8.00
2023-03-26T05:42:57.330Z,7.94
2023-03-26T05:45:24.004Z,8.06
2023-03-26T05:47:51.346Z,8.06
2023-03-26T05:50:18.099Z,8.06
2023-03-26T05:52:44.814Z,8.06
2023-03-26T05:55:11.880Z,8.06
2023-03-26T05:57:39.097Z,8.00
2023-03-26T06:00:11.747Z,8.00
2023-03-26T06:02:38.910Z,8.06
2023-03-26T06:05:05.846Z,8.06
2023-03-26T06:07:33.998Z,8.06
2023-03-26T06:10:00.941Z,8.06
2023-03-26T06:12:27.639Z,8.13
2023-03-26T06:14:54.196Z,8.13
2023-03-26T06:17:20.794Z,8.19
2023-03-26T06:19:47.913Z,8.19
2023-03-26T06:22:14.503Z,8.25
2023-03-26T06:24:41.071Z,8.25
2023-03-26T06:27:07.679Z,8.25
2023-03-26T06:29:34.328Z,8.25
2023-03-26T06:32:12.499Z,8.19
2023-03-26T06:34:43.211Z,8.25
2023-03-26T06:37:09.835Z,8.25
2023-03-26T06:39:36.405Z,8.25
2023-03-26T06:42:03.041Z,8.31
2023-03-26T06:44:29.673Z,8.38
2023-03-26T06:46:56.394Z,8.38
2023-03-26T06:49:23.038Z,8.44
2023-03-26T06:51:49.741Z,8.31
2023-03-26T06:54:16.720Z,8.38
2023-03-26T06:56:43.384Z,8.44
2023-03-26T06:59:10.312Z,8.44
2023-03-26T07:01:37.012Z,8.44
2023-03-26T07:04:03.787Z,8.44
2023-03-26T07:06:30.486Z,8.44
2023-03-26T07:08:57.446Z,8.38
2023-03-26T07:11:25.579Z,8.50
2023-03-26T07:13:52.638Z,8.50
2023-03-26T07:16:19.355Z,8.44
2023-03-26T07:18:46.059Z,8.44
2023-03-26T07:21:13.089Z,8.44
2023-03-26T07:23:40.198Z,8.50
2023-03-26T07:26:30.903Z,8.50
2023-03-26T07:29:14.485Z,8.56
2023-03-26T07:31:53.376Z,8.56
2023-03-26T07:34:50.497Z,8.63
2023-03-26T07:37:32.366Z,8.56
2023-03-26T07:40:16.668Z,8.69
2023-03-26T07:42:47.850Z,8.63
2023-03-26T07:45:41.570Z,8.69
2023-03-26T07:48:17.642Z,8.69
2023-03-26T07:50:44.988Z,8.75
2023-03-26T07:53:11.821Z,8.75
2023-03-26T07:56:06.701Z,8.88
2023-03-26T07:58:58.179Z,8.81
2023-03-26T08:01:34.565Z,8.75
2023-03-26T08:04:23.587Z,8.94
2023-03-26T08:07:04.629Z,8.88
2023-03-26T08:09:54.515Z,8.94
2023-03-26T08:12:52.087Z,9.00
2023-03-26T08:15:37.937Z,9.06
2023-03-26T08:18:11.604Z,9.06
2023-03-26T08:20:50.011Z,9.00
2023-03-26T08:23:50.433Z,9.00
2023-03-26T08:26:27.648Z,8.94
2023-03-26T08:29:07.102Z,8.94
2023-03-26T08:31:36.766Z,8.88
2023-03-26T08:34:03.523Z,8.88
2023-03-26T08:36:30.218Z,8.94
2023-03-26T08:38:59.398Z,8.94
2023-03-26T08:41:47.162Z,8.94
2023-03-26T08:44:54.490Z,8.88
2023-03-26T08:48:06.623Z,8.81
2023-03-26T08:51:12.779Z,8.75
2023-03-26T08:54:20.758Z,8.75
2023-03-26T08:56:53.275Z,8.75
2023-03-26T08:59:47.057Z,8.69
2023-03-26T09:02:38.462Z,8.63
2023-03-26T09:05:36.238Z,8.69
2023-03-26T09:08:30.092Z,8.63
2023-03-26T09:11:18.193Z,8.56
2023-03-26T09:14:15.429Z,8.50
2023-03-26T09:17:03.456Z,8.44
2023-03-26T09:20:27.198Z,8.44
2023-03-26T09:23:13.951Z,8.38
2023-03-26T09:26:02.891Z,8.44
2023-03-26T09:28:40.513Z,8.38
2023-03-26T09:31:12.911Z,8.44
2023-03-26T09:33:45.478Z,8.50
2023-03-26T09:36:31.999Z,8.50
2023-03-26T09:39:42.867Z,8.56
2023-03-26T09:42:23.080Z,8.44
2023-03-26T09:45:02.061Z,8.56
2023-03-26T09:48:09.153Z,8.56
2023-03-26T09:50:44.738Z,8.63
2023-03-26T09:53:42.174Z,8.63
2023-03-26T09:56:22.493Z,8.69
2023-03-26T09:59:14.171Z,8.63
2023-03-26T10:02:04.265Z,8.63
2023-03-26T10:05:05.031Z,8.56
2023-03-26T10:08:10.970Z,8.56
2023-03-26T10:11:03.336Z,8.50
2023-03-26T10:13:38.985Z,8.50
2023-03-26T10:16:18.133Z,8.50
2023-03-26T10:19:07.689Z,8.50
2023-03-26T10:21:46.306Z,8.50
2023-03-26T10:24:30.779Z,8.56
2023-03-26T10:27:36.008Z,8.56
2023-03-26T10:30:05.457Z,8.69
2023-03-26T10:32:47.367Z,8.63
2023-03-26T10:35:55.953Z,8.56
2023-03-26T10:39:09.335Z,8.63
2023-03-26T10:41:54.077Z,8.63
2023-03-26T10:44:43.267Z,8.56
2023-03-26T10:47:56.872Z,8.75
2023-03-26T10:50:49.081Z,8.75
2023-03-26T10:53:30.960Z,8.69
2023-03-26T10:56:14.806Z,8.75
2023-03-26T10:58:48.351Z,8.69
2023-03-26T11:01:28.742Z,8.69
2023-03-26T11:03:57.548Z,8.56
2023-03-26T11:06:51.540Z,8.50
2023-03-26T11:09:46.344Z,8.44
2023-03-26T11:12:25.645Z,8.56
2023-03-26T11:15:36.699Z,8.63
2023-03-26T11:18:28.780Z,8.75
2023-03-26T11:21:23.324Z,8.69
2023-03-26T11:24:04.722Z,8.63
2023-03-26T11:26:55.913Z,8.69
2023-03-26T11:29:54.995Z,8.75
2023-03-26T11:32:42.637Z,8.94
2023-03-26T11:35:39.402Z,8.94
2023-03-26T11:38:37.205Z,9.06
2023-03-26T11:41:12.252Z,8.94
2023-03-26T11:43:38.885Z,8.88
2023-03-26T11:46:11.984Z,8.88
2023-03-26T11:48:48.988Z,8.75
2023-03-26T11:51:36.705Z,8.69
2023-03-26T11:54:05.437Z,8.69
2023-03-26T11:56:32.108Z,8.56
2023-03-26T11:59:16.144Z,8.56
2023-03-26T12:01:57.439Z,8.63
2023-03-26T12:04:35.185Z,8.69
2023-03-26T12:07:16.814Z,8.75
2023-03-26T12:09:57.822Z,8.75
2023-03-26T12:12:47.500Z,8.69
2023-03-26T12:15:16.659Z,8.81
2023-03-26T12:17:43.426Z,8.94
2023-03-26T12:20:34.697Z,9.00
2023-03-26T12:23:04.943Z,9.06
2023-03-26T12:25:37.381Z,9.19
2023-03-26T12:28:13.464Z,9.31
2023-03-26T12:30:44.969Z,9.38
2023-03-26T12:33:34.131Z,9.69
2023-03-26T12:36:20.538Z,9.88
2023-03-26T12:40:05.943Z,9.94
2023-03-26T12:44:42.159Z,9.94
2023-03-26T12:44:58.746Z,9.94
2023-03-26T12:48:00.198Z,9.88
2023-03-26T12:50:33.968Z,9.88
2023-03-26T12:53:31.213Z,9.94
2023-03-26T12:56:09.563Z,9.88
2023-03-26T12:58:44.940Z,9.94
2023-03-26T13:01:26.537Z,9.94
2023-03-26T13:04:17.427Z,9.94
2023-03-26T13:06:59.180Z,10.19
2023-03-26T13:09:41.913Z,10.25
2023-03-26T13:12:26.868Z,10.38
2023-03-26T13:15:15.603Z,10.38
2023-03-26T13:17:58.108Z,10.56
2023-03-26T13:20:37.940Z,10.25
2023-03-26T13:23:29.632Z,10.50
2023-03-26T13:25:59.116Z,10.56
2023-03-26T13:28:52.838Z,10.50
2023-03-26T13:31:31.065Z,10.38
2023-03-26T13:34:11.688Z,10.31
2023-03-26T13:36:38.325Z,10.25
2023-03-26T13:39:12.154Z,10.31
2023-03-26T13:42:07.204Z,10.38
2023-03-26T13:45:04.392Z,10.50
2023-03-26T13:47:38.215Z,10.38
2023-03-26T13:50:22.570Z,10.63
2023-03-26T13:53:07.917Z,10.63
2023-03-26T13:55:43.729Z,10.63
2023-03-26T13:58:27.029Z,10.63
2023-03-26T14:01:09.542Z,10.75
2023-03-26T14:04:00.797Z,10.63
2023-03-26T14:06:27.364Z,10.56
2023-03-26T14:09:02.738Z,10.63
2023-03-26T14:11:58.174Z,10.44
2023-03-26T14:14:52.955Z,10.25
2023-03-26T14:17:36.457Z,10.19
2023-03-26T14:20:17.945Z,10.19
2023-03-26T14:23:06.224Z,10.06
2023-03-26T14:25:58.915Z,9.88
2023-03-26T14:29:02.175Z,9.81
2023-03-26T14:31:51.480Z,9.75
2023-03-26T14:34:35.925Z,9.63
2023-03-26T14:37:11.194Z,9.75
2023-03-26T14:40:14.738Z,9.81
2023-03-26T14:42:47.291Z,9.63
2023-03-26T14:45:23.070Z,9.69
2023-03-26T14:48:27.463Z,9.69
2023-03-26T14:51:22.800Z,9.63
2023-03-26T14:53:55.307Z,9.75
2023-03-26T14:56:35.631Z,9.75
2023-03-26T15:00:15.577Z,9.56
2023-03-26T15:03:26.822Z,9.63
2023-03-26T15:06:23.929Z,9.44
2023-03-26T15:09:27.697Z,9.44
2023-03-26T15:12:23.039Z,9.31
2023-03-26T15:14:58.517Z,9.25
2023-03-26T15:17:43.919Z,9.25
2023-03-26T15:20:47.935Z,9.25
2023-03-26T15:24:08.065Z,9.25
2023-03-26T15:26:52.767Z,9.13
2023-03-26T15:29:30.017Z,9.31
2023-03-26T15:32:08.486Z,9.56
2023-03-26T15:35:12.404Z,9.50
2023-03-26T15:37:48.236Z,9.44
2023-03-26T15:40:40.398Z,9.25
2023-03-26T15:43:20.071Z,9.31
2023-03-26T15:46:28.936Z,9.13
2023-03-26T15:49:11.716Z,9.31
2023-03-26T15:52:06.336Z,9.06
2023-03-26T15:54:47.732Z,8.94
2023-03-26T15:57:34.482Z,9.00
2023-03-26T16:00:15.348Z,8.94
2023-03-26T16:03:09.661Z,8.94
2023-03-26T16:05:41.910Z,8.81
2023-03-26T16:08:41.489Z,8.69
2023-03-26T16:11:12.549Z,8.63
2023-03-26T16:14:03.973Z,8.69
2023-03-26T16:16:49.448Z,8.44
2023-03-26T16:19:19.355Z,8.50
2023-03-26T16:22:01.764Z,8.50
2023-03-26T16:24:33.615Z,8.56
2023-03-26T16:27:15.670Z,8.44
2023-03-26T16:30:42.124Z,8.44
2023-03-26T16:33:19.397Z,8.44
2023-03-26T16:36:25.827Z,8.25
2023-03-26T16:39:08.788Z,8.25
2023-03-26T16:41:46.719Z,8.38
2023-03-26T16:44:38.170Z,8.25
2023-03-26T16:47:32.155Z,8.25
2023-03-26T16:50:18.730Z,8.13
2023-03-26T16:52:54.163Z,8.13
2023-03-26T16:55:59.234Z,8.13
2023-03-26T16:58:39.923Z,7.88
2023-03-26T17:01:27.227Z,8.06
2023-03-26T17:04:01.565Z,8.13
2023-03-26T17:06:46.939Z,7.94
2023-03-26T17:09:44.292Z,7.88
2023-03-26T17:12:20.068Z,7.88
2023-03-26T17:15:24.036Z,7.75
2023-03-26T17:18:03.612Z,7.69
2023-03-26T17:20:59.582Z,7.63
2023-03-26T17:23:39.737Z,7.56
2023-03-26T17:26:36.992Z,7.50
2023-03-26T17:29:31.485Z,7.50
2023-03-26T17:32:04.649Z,7.50
2023-03-26T17:34:46.823Z,7.44
2023-03-26T17:37:31.284Z,7.44
2023-03-26T17:39:57.809Z,7.38
2023-03-26T17:42:27.297Z,7.25
2023-03-26T17:44:58.721Z,7.31
2023-03-26T17:47:34.516Z,7.25
2023-03-26T17:50:22.587Z,7.25
2023-03-26T17:53:02.904Z,7.19
2023-03-26T17:55:33.330Z,7.19
2023-03-26T17:58:03.445Z,7.00
2023-03-26T18:00:40.986Z,7.06
2023-03-26T18:03:31.158Z,7.00
2023-03-26T18:06:08.620Z,7.00
2023-03-26T18:09:11.972Z,6.94
2023-03-26T18:11:58.659Z,6.81
2023-03-26T18:14:28.442Z,6.69
2023-03-26T18:17:01.141Z,6.69
2023-03-26T18:19:28.784Z,6.56
2023-03-26T18:22:03.275Z,6.50
2023-03-26T18:24:34.362Z,6.50
2023-03-26T18:27:12.964Z,6.50
2023-03-26T18:29:57.475Z,6.56
2023-03-26T18:32:33.402Z,6.56
2023-03-26T18:35:13.576Z,6.63
2023-03-26T18:37:44.035Z,6.63
2023-03-26T18:40:16.194Z,6.63
2023-03-26T18:42:52.830Z,6.63
2023-03-26T18:45:29.757Z,6.63
2023-03-26T18:48:04.174Z,6.63
2023-03-26T18:50:36.615Z,6.56
2023-03-26T18:53:14.063Z,6.63
2023-03-26T18:55:41.084Z,6.56
2023-03-26T18:58:35.602Z,6.50
2023-03-26T19:01:11.869Z,6.44
2023-03-26T19:03:44.108Z,6.44
2023-03-26T19:06:14.430Z,6.38
2023-03-26T19:08:45.409Z,6.25
2023-03-26T19:11:17.009Z,6.13
2023-03-26T19:13:49.644Z,6.06
2023-03-26T19:16:28.077Z,6.00
2023-03-26T19:18:54.880Z,6.06
2023-03-26T19:21:23.292Z,6.06
2023-03-26T19:23:52.881Z,6.06
2023-03-26T19:26:19.775Z,6.06
2023-03-26T19:28:51.803Z,6.00
2023-03-26T19:31:25.904Z,6.06
2023-03-26T19:33:59.507Z,6.06
2023-03-26T19:36:29.654Z,6.00
2023-03-26T19:38:59.023Z,5.94
2023-03-26T19:41:33.946Z,5.88
2023-03-26T19:44:21.132Z,5.81
2023-03-26T19:46:53.001Z,5.75
2023-03-26T19:49:31.628Z,5.69
2023-03-26T19:52:26.298Z,5.69
2023-03-26T19:55:21.889Z,5.63
2023-03-26T19:57:49.188Z,5.56
2023-03-26T20:00:16.123Z,5.56
2023-03-26T20:02:48.679Z,5.56
2023-03-26T20:05:28.922Z,5.50
2023-03-26T20:07:59.700Z,5.50
2023-03-26T20:10:27.613Z,5.56
2023-03-26T20:12:54.377Z,5.50
2023-03-26T20:15:25.298Z,5.50
2023-03-26T20:17:55.587Z,5.50
2023-03-26T20:20:24.909Z,5.50
2023-03-26T20:22:53.773Z,5.50
2023-03-26T20:25:46.327Z,5.56
2023-03-26T20:28:12.902Z,5.56
2023-03-26T20:30:39.568Z,5.56
2023-03-26T20:33:12.458Z,5.50
2023-03-26T20:35:41.184Z,5.56
2023-03-26T20:38:09.537Z,5.50
2023-03-26T20:40:37.044Z,5.50
2023-03-26T20:43:04.352Z,5.50
2023-03-26T20:45:30.974Z,5.50
2023-03-26T20:47:59.382Z,5.50
2023-03-26T20:50:26.721Z,5.44
2023-03-26T20:52:53.459Z,5.44
2023-03-26T20:55:21.380Z,5.44
2023-03-26T20:57:49.175Z,5.38
2023-03-26T21:00:26.824Z,5.25
2023-03-26T21:02:56.452Z,5.31
2023-03-26T21:05:26.950Z,5.25
2023-03-26T21:07:56.994Z,5.13
2023-03-26T21:10:29.696Z,5.19
2023-03-26T21:13:10.806Z,5.13
2023-03-26T21:15:37.735Z,5.06
2023-03-26T21:18:04.649Z,5.00
2023-03-26T21:20:34.572Z,4.94
2023-03-26T21:23:13.141Z,4.94
2023-03-26T21:25:43.052Z,4.81
2023-03-26T21:28:29.062Z,4.75
2023-03-26T21:31:04.279Z,4.69
2023-03-26T21:33:30.877Z,4.69
2023-03-26T21:35:59.735Z,4.69
2023-03-26T21:38:27.347Z,4.56
2023-03-26T21:40:58.849Z,4.50
2023-03-26T21:43:26.069Z,4.44
2023-03-26T21:45:54.656Z,4.56
2023-03-26T21:48:22.047Z,4.44
2023-03-26T21:50:49.396Z,4.25
2023-03-26T21:53:16.595Z,4.25
2023-03-26T21:55:59.151Z,4.31
2023-03-26T21:58:44.394Z,4.25
2023-03-26T22:01:34.472Z,4.25
2023-03-26T22:04:19.732Z,4.38
2023-03-26T22:06:56.719Z,4.38
2023-03-26T22:09:30.099Z,4.38
2023-03-26T22:12:02.290Z,4.44
2023-03-26T22:14:28.917Z,4.44
2023-03-26T22:16:55.574Z,4.50
2023-03-26T22:19:22.863Z,4.56
2023-03-26T22:21:50.981Z,4.56
2023-03-26T22:24:18.108Z,4.56
2023-03-26T22:26:44.677Z,4.63
2023-03-26T22:29:12.015Z,4.63
2023-03-26T22:31:40.360Z,4.69
2023-03-26T22:34:07.766Z,4.69
2023-03-26T22:36:35.144Z,4.75
2023-03-26T22:39:02.430Z,4.69
2023-03-26T22:41:31.801Z,4.75
2023-03-26T22:44:09.321Z,4.69
2023-03-26T22:46:40.293Z,4.63
2023-03-26T22:49:07.409Z,4.56
2023-03-26T22:51:34.001Z,4.56
2023-03-26T22:54:00.602Z,4.50
2023-03-26T22:56:27.374Z,4.38
2023-03-26T22:58:54.084Z,4.38
2023-03-26T23:01:23.957Z,4.38
2023-03-26T23:03:50.849Z,4.38
2023-03-26T23:06:17.693Z,4.38
2023-03-26T23:08:44.301Z,4.25
2023-03-26T23:11:19.205Z,4.25
2023-03-26T23:13:47.440Z,4.25
2023-03-26T23:16:15.653Z,4.31
2023-03-26T23:18:43.376Z,4.38
2023-03-26T23:21:27.903Z,4.31
2023-03-26T23:23:54.473Z,4.31
2023-03-26T23:26:21.390Z,4.31
2023-03-26T23:28:48.561Z,4.31
2023-03-26T23:31:15.208Z,4.25
2023-03-26T23:33:51.114Z,4.25
2023-03-26T23:36:19.561Z,4.31
2023-03-26T23:38:51.042Z,4.25
2023-03-26T23:41:21.635Z,4.38
2023-03-26T23:43:56.061Z,4.38
2023-03-26T23:46:25.649Z,4.38
2023-03-26T23:48:52.927Z,4.38
2023-03-26T23:51:21.442Z,4.38
2023-03-26T23:53:49.436Z,4.31
2023-03-26T23:56:16.521Z,4.25
2023-03-26T23:58:43.296Z,4.25
